createdAt,value
2023-04-12T00:02:01.339Z,5.56
2023-04-12T00:04:29.565Z,5.57
2023-04-12T00:06:58.266Z,5.57
2023-04-12T00:09:30.681Z,5.60
2023-04-12T00:11:59.949Z,5.60
2023-04-12T00:14:28.813Z,5.60
2023-04-12T00:16:56.820Z,5.59
2023-04-12T00:19:26.085Z,5.59
2023-04-12T00:21:54.217Z,5.56
2023-04-12T00:24:22.066Z,5.54
2023-04-12T00:26:49.930Z,5.52
2023-04-12T00:29:18.210Z,5.49
2023-04-12T00:31:46.065Z,5.47
2023-04-12T00:34:14.009Z,5.44
2023-04-12T00:36:42.034Z,5.43
2023-04-12T00:39:10.101Z,5.42
2023-04-12T00:41:38.213Z,5.43
2023-04-12T00:44:07.949Z,5.45
2023-04-12T00:46:38.417Z,5.44
2023-04-12T00:49:06.568Z,5.42
2023-04-12T00:51:34.702Z,5.41
2023-04-12T00:54:04.045Z,5.40
2023-04-12T00:56:33.242Z,5.37
2023-04-12T00:59:02.202Z,5.34
2023-04-12T01:01:32.152Z,5.31
2023-04-12T01:04:01.599Z,5.31
2023-04-12T01:06:42.578Z,5.32
2023-04-12T01:09:31.799Z,5.33
2023-04-12T01:12:11.130Z,5.32
2023-04-12T01:14:48.347Z,5.31
2023-04-12T01:17:21.110Z,5.30
2023-04-12T01:20:17.178Z,5.27
2023-04-12T01:22:55.585Z,5.24
2023-04-12T01:25:48.725Z,5.19
2023-04-12T01:28:23.052Z,5.14
2023-04-12T01:30:52.203Z,5.14
2023-04-12T01:33:21.269Z,5.16
2023-04-12T01:35:50.104Z,5.17
2023-04-12T01:38:18.036Z,5.17
2023-04-12T01:40:46.281Z,5.17
2023-04-12T01:43:16.128Z,5.13
2023-04-12T01:45:44.216Z,5.10
2023-04-12T01:48:13.090Z,5.07
2023-04-12T01:50:57.150Z,5.02
2023-04-12T01:53:44.982Z,4.98
2023-04-12T01:56:13.488Z,4.97
2023-04-12T01:58:43.355Z,4.96
2023-04-12T02:01:12.853Z,4.95
2023-04-12T02:03:42.771Z,4.95
2023-04-12T02:06:11.183Z,4.94
2023-04-12T02:08:39.142Z,4.92
2023-04-12T02:11:14.855Z,4.87
2023-04-12T02:13:43.363Z,4.86
2023-04-12T02:16:14.079Z,4.81
2023-04-12T02:18:42.671Z,4.78
2023-04-12T02:21:11.837Z,4.76
2023-04-12T02:23:39.549Z,4.77
2023-04-12T02:26:07.927Z,4.79
2023-04-12T02:28:38.788Z,4.84
2023-04-12T02:31:07.445Z,4.88
2023-04-12T02:33:36.038Z,4.94
2023-04-12T02:36:05.980Z,4.98
2023-04-12T02:38:33.695Z,4.99
2023-04-12T02:41:01.768Z,5.00
2023-04-12T02:43:29.778Z,4.99
2023-04-12T02:45:57.664Z,4.97
2023-04-12T02:48:25.754Z,4.95
2023-04-12T02:50:53.901Z,4.92
2023-04-12T02:53:21.895Z,4.89
2023-04-12T02:55:49.778Z,4.88
2023-04-12T02:58:19.104Z,4.89
2023-04-12T03:00:48.067Z,4.90
2023-04-12T03:03:18.319Z,4.92
2023-04-12T03:05:47.412Z,4.91
2023-04-12T03:08:15.494Z,4.89
2023-04-12T03:10:43.327Z,4.87
2023-04-12T03:13:11.685Z,4.84
2023-04-12T03:15:40.860Z,4.80
2023-04-12T03:18:08.830Z,4.73
2023-04-12T03:20:39.209Z,4.73
2023-04-12T03:23:07.263Z,4.71
2023-04-12T03:25:35.104Z,4.70
2023-04-12T03:28:03.302Z,4.72
2023-04-12T03:30:31.961Z,4.72
2023-04-12T03:33:00.089Z,4.72
2023-04-12T03:35:28.276Z,4.70
2023-04-12T03:37:58.806Z,4.66
2023-04-12T03:40:26.622Z,4.62
2023-04-12T03:42:54.574Z,4.58
2023-04-12T03:45:22.342Z,4.55
2023-04-12T03:47:50.182Z,4.51
2023-04-12T03:50:26.480Z,4.48
2023-04-12T03:52:54.365Z,4.45
2023-04-12T03:55:22.495Z,4.44
2023-04-12T03:57:50.348Z,4.45
2023-04-12T04:00:18.244Z,4.45
2023-04-12T04:02:47.462Z,4.46
2023-04-12T04:05:15.572Z,4.45
2023-04-12T04:07:43.585Z,4.43
2023-04-12T04:10:11.748Z,4.41
2023-04-12T04:12:39.630Z,4.37
2023-04-12T04:15:07.938Z,4.32
2023-04-12T04:17:36.163Z,4.26
2023-04-12T04:20:05.811Z,4.22
2023-04-12T04:22:33.621Z,4.19
2023-04-12T04:25:02.503Z,4.19
2023-04-12T04:27:30.743Z,4.18
2023-04-12T04:29:59.754Z,4.17
2023-04-12T04:32:27.623Z,4.14
2023-04-12T04:35:00.157Z,4.10
2023-04-12T04:37:30.676Z,4.07
2023-04-12T04:39:59.094Z,4.03
2023-04-12T04:42:26.864Z,3.99
2023-04-12T04:45:03.134Z,3.95
2023-04-12T04:47:31.080Z,3.93
2023-04-12T04:50:00.064Z,3.92
2023-04-12T04:52:27.964Z,3.92
2023-04-12T04:54:57.962Z,3.91
2023-04-12T04:57:26.854Z,3.91
2023-04-12T04:59:57.410Z,3.91
2023-04-12T05:02:26.377Z,3.92
2023-04-12T05:04:56.681Z,3.91
2023-04-12T05:07:26.092Z,3.89
2023-04-12T05:09:53.916Z,3.88
2023-04-12T05:12:21.910Z,3.87
2023-04-12T05:14:51.651Z,3.88
2023-04-12T05:17:20.204Z,3.91
2023-04-12T05:19:48.709Z,3.92
2023-04-12T05:22:20.607Z,3.95
2023-04-12T05:24:49.403Z,3.99
2023-04-12T05:27:17.741Z,4.02
2023-04-12T05:29:45.998Z,4.04
2023-04-12T05:32:13.874Z,4.06
2023-04-12T05:34:42.333Z,4.07
2023-04-12T05:37:10.142Z,4.10
2023-04-12T05:39:39.293Z,4.13
2023-04-12T05:42:07.329Z,4.17
2023-04-12T05:44:37.277Z,4.23
2023-04-12T05:47:05.457Z,4.30
2023-04-12T05:49:33.661Z,4.38
2023-04-12T05:52:02.598Z,4.43
2023-04-12T05:54:30.600Z,4.46
2023-04-12T05:56:58.721Z,4.49
2023-04-12T05:59:26.552Z,4.53
2023-04-12T06:01:55.168Z,4.57
2023-04-12T06:04:26.342Z,4.63
2023-04-12T06:06:57.926Z,4.72
2023-04-12T06:09:26.438Z,4.77
2023-04-12T06:11:54.181Z,4.82
2023-04-12T06:14:22.086Z,4.87
2023-04-12T06:16:51.682Z,4.92
2023-04-12T06:19:19.404Z,4.95
2023-04-12T06:21:47.561Z,4.98
2023-04-12T06:24:16.431Z,5.00
2023-04-12T06:26:47.041Z,5.03
2023-04-12T06:29:15.004Z,5.07
2023-04-12T06:31:43.285Z,5.12
2023-04-12T06:34:11.129Z,5.17
2023-04-12T06:36:41.695Z,5.23
2023-04-12T06:39:09.734Z,5.29
2023-04-12T06:41:37.583Z,5.34
2023-04-12T06:44:06.390Z,5.38
2023-04-12T06:46:34.332Z,5.42
2023-04-12T06:49:02.329Z,5.45
2023-04-12T06:51:31.116Z,5.48
2023-04-12T06:53:58.924Z,5.51
2023-04-12T06:56:26.835Z,5.54
2023-04-12T06:58:54.750Z,5.59
2023-04-12T07:01:22.684Z,5.64
2023-04-12T07:03:50.767Z,5.69
2023-04-12T07:06:25.180Z,5.73
2023-04-12T07:08:54.518Z,5.77
2023-04-12T07:11:23.386Z,5.79
2023-04-12T07:13:51.718Z,5.82
2023-04-12T07:16:20.498Z,5.83
2023-04-12T07:18:48.613Z,5.86
2023-04-12T07:21:17.831Z,5.90
2023-04-12T07:23:46.988Z,5.96
2023-04-12T07:26:14.824Z,6.02
2023-04-12T07:28:42.667Z,6.08
2023-04-12T07:31:11.279Z,6.13
2023-04-12T07:33:40.741Z,6.18
2023-04-12T07:36:11.761Z,6.22
2023-04-12T07:38:39.943Z,6.25
2023-04-12T07:41:08.240Z,6.28
2023-04-12T07:43:36.123Z,6.34
2023-04-12T07:46:08.916Z,6.40
2023-04-12T07:48:37.374Z,6.47
2023-04-12T07:51:05.943Z,6.54
2023-04-12T07:53:33.848Z,6.59
2023-04-12T07:56:05.250Z,6.68
2023-04-12T07:58:34.068Z,6.73
2023-04-12T08:01:01.908Z,6.79
2023-04-12T08:03:29.893Z,6.87
2023-04-12T08:05:57.721Z,6.91
2023-04-12T08:08:26.121Z,7.01
2023-04-12T08:10:54.272Z,7.08
2023-04-12T08:13:22.327Z,7.14
2023-04-12T08:15:50.318Z,7.27
2023-04-12T08:18:18.694Z,7.37
2023-04-12T08:20:49.402Z,7.46
2023-04-12T08:23:17.378Z,7.53
2023-04-12T08:25:45.508Z,7.57
2023-04-12T08:28:13.584Z,7.61
2023-04-12T08:30:43.797Z,7.63
2023-04-12T08:33:11.572Z,7.64
2023-04-12T08:35:40.142Z,7.66
2023-04-12T08:38:08.221Z,7.68
2023-04-12T08:40:36.063Z,7.71
2023-04-12T08:43:07.740Z,7.78
2023-04-12T08:45:36.596Z,7.90
2023-04-12T08:48:07.476Z,8.05
2023-04-12T08:50:35.501Z,8.23
2023-04-12T08:53:03.785Z,8.39
2023-04-12T08:55:31.928Z,8.51
2023-04-12T08:58:00.294Z,8.65
2023-04-12T09:00:28.447Z,8.77
2023-04-12T09:02:56.447Z,8.90
2023-04-12T09:05:30.135Z,8.98
2023-04-12T09:07:58.348Z,9.02
2023-04-12T09:10:39.779Z,9.04
2023-04-12T09:13:07.716Z,9.04
2023-04-12T09:15:36.499Z,9.06
2023-04-12T09:18:09.589Z,9.10
2023-04-12T09:20:40.457Z,9.16
2023-04-12T09:23:26.759Z,9.17
2023-04-12T09:25:55.406Z,9.17
2023-04-12T09:28:28.349Z,9.19
2023-04-12T09:31:00.762Z,9.21
2023-04-12T09:33:34.706Z,9.20
2023-04-12T09:36:04.744Z,9.18
2023-04-12T09:38:33.657Z,9.15
2023-04-12T09:41:26.942Z,9.08
2023-04-12T09:43:55.494Z,9.10
2023-04-12T09:46:23.478Z,9.11
2023-04-12T09:48:53.443Z,9.12
2023-04-12T09:51:39.622Z,9.13
2023-04-12T09:54:09.135Z,9.16
2023-04-12T09:56:40.011Z,9.16
2023-04-12T09:59:08.731Z,9.16
2023-04-12T10:01:39.922Z,9.14
2023-04-12T10:04:09.420Z,9.13
2023-04-12T10:06:39.006Z,9.15
2023-04-12T10:09:08.828Z,9.26
2023-04-12T10:11:42.162Z,9.35
2023-04-12T10:14:10.202Z,9.46
2023-04-12T10:16:41.775Z,9.57
2023-04-12T10:19:13.803Z,9.69
2023-04-12T10:21:42.836Z,9.82
2023-04-12T10:24:11.042Z,9.96
2023-04-12T10:26:43.464Z,10.09
2023-04-12T10:29:31.263Z,10.23
2023-04-12T10:32:19.968Z,10.36
2023-04-12T10:34:54.059Z,10.51
2023-04-12T10:37:23.048Z,10.64
2023-04-12T10:39:55.139Z,10.72
2023-04-12T10:42:24.155Z,10.74
2023-04-12T10:44:58.751Z,10.74
2023-04-12T10:47:51.024Z,10.77
2023-04-12T10:50:25.227Z,10.82
2023-04-12T10:53:13.351Z,10.86
2023-04-12T10:55:45.696Z,10.91
2023-04-12T10:58:49.348Z,10.96
2023-04-12T11:01:18.943Z,10.97
2023-04-12T11:04:06.037Z,11.00
2023-04-12T11:07:07.544Z,11.02
2023-04-12T11:09:43.498Z,11.10
2023-04-12T11:12:13.718Z,11.16
2023-04-12T11:14:52.659Z,11.17
2023-04-12T11:17:21.967Z,11.21
2023-04-12T11:19:54.250Z,11.28
2023-04-12T11:22:24.309Z,11.32
2023-04-12T11:24:54.465Z,11.35
2023-04-12T11:27:29.190Z,11.39
2023-04-12T11:30:03.705Z,11.47
2023-04-12T11:32:31.760Z,11.52
2023-04-12T11:34:59.975Z,11.56
2023-04-12T11:37:28.990Z,11.60
2023-04-12T11:40:04.418Z,11.66
2023-04-12T11:42:32.872Z,11.73
2023-04-12T11:45:06.065Z,11.78
2023-04-12T11:47:35.390Z,11.84
2023-04-12T11:50:04.023Z,11.86
2023-04-12T11:52:33.494Z,11.88
2023-04-12T11:55:06.737Z,11.91
2023-04-12T11:57:35.468Z,11.93
2023-04-12T12:00:06.892Z,11.94
2023-04-12T12:02:41.110Z,11.94
2023-04-12T12:05:14.874Z,11.93
2023-04-12T12:07:43.719Z,11.90
2023-04-12T12:10:13.299Z,11.86
2023-04-12T12:12:45.910Z,11.82
2023-04-12T12:15:15.803Z,11.81
2023-04-12T12:17:43.963Z,11.83
2023-04-12T12:20:21.893Z,11.87
2023-04-12T12:22:50.463Z,11.90
2023-04-12T12:25:19.244Z,11.93
2023-04-12T12:27:51.425Z,11.94
2023-04-12T12:30:20.842Z,11.93
2023-04-12T12:32:50.959Z,11.95
2023-04-12T12:35:19.760Z,11.94
2023-04-12T12:37:52.629Z,11.93
2023-04-12T12:40:29.575Z,11.93
2023-04-12T12:42:57.909Z,11.92
2023-04-12T12:45:28.115Z,11.96
2023-04-12T12:48:04.008Z,11.98
2023-04-12T12:50:33.947Z,12.01
2023-04-12T12:53:02.787Z,12.02
2023-04-12T12:55:31.792Z,12.04
2023-04-12T13:00:31.832Z,12.07
2023-04-12T13:02:59.911Z,12.10
2023-04-12T13:05:28.293Z,12.10
2023-04-12T13:07:56.245Z,12.12
2023-04-12T13:10:24.343Z,12.14
2023-04-12T13:12:52.554Z,12.14
2023-04-12T13:15:23.846Z,12.16
2023-04-12T13:17:53.076Z,12.19
2023-04-12T13:20:22.426Z,12.19
2023-04-12T13:22:52.335Z,12.18
2023-04-12T13:25:21.222Z,12.20
2023-04-12T13:27:49.559Z,12.22
2023-04-12T13:30:20.562Z,12.23
2023-04-12T13:32:48.712Z,12.25
2023-04-12T13:35:16.593Z,12.27
2023-04-12T13:37:44.475Z,12.27
2023-04-12T13:40:12.409Z,12.27
2023-04-12T13:42:40.479Z,12.27
2023-04-12T13:45:11.369Z,12.28
2023-04-12T13:47:39.511Z,12.27
2023-04-12T13:50:08.089Z,12.26
2023-04-12T13:52:35.815Z,12.27
2023-04-12T13:55:08.462Z,12.29
2023-04-12T13:57:36.607Z,12.31
2023-04-12T14:00:05.141Z,12.32
2023-04-12T14:02:33.056Z,12.32
2023-04-12T14:05:01.197Z,12.35
2023-04-12T14:07:29.588Z,12.37
2023-04-12T14:09:57.983Z,12.40
2023-04-12T14:12:25.778Z,12.43
2023-04-12T14:14:53.667Z,12.43
2023-04-12T14:17:21.958Z,12.52
2023-04-12T14:19:51.300Z,12.54
2023-04-12T14:22:19.024Z,12.54
2023-04-12T14:24:47.091Z,12.55
2023-04-12T14:27:17.868Z,12.55
2023-04-12T14:29:46.659Z,12.57
2023-04-12T14:32:14.712Z,12.58
2023-04-12T14:34:43.586Z,12.59
2023-04-12T14:37:11.864Z,12.59
2023-04-12T14:39:39.681Z,12.60
2023-04-12T14:42:07.799Z,12.60
2023-04-12T14:44:35.818Z,12.60
2023-04-12T14:47:03.830Z,12.60
2023-04-12T14:49:33.432Z,12.60
2023-04-12T14:52:02.142Z,12.61
2023-04-12T14:54:30.403Z,12.61
2023-04-12T14:56:59.929Z,12.60
2023-04-12T14:59:27.847Z,12.61
2023-04-12T15:01:55.959Z,12.61
2023-04-12T15:04:24.032Z,12.63
2023-04-12T15:06:52.038Z,12.65
2023-04-12T15:09:21.406Z,12.67
2023-04-12T15:11:50.619Z,12.71
2023-04-12T15:14:20.601Z,12.76
2023-04-12T15:16:51.588Z,12.79
2023-04-12T15:19:23.136Z,12.81
2023-04-12T15:21:52.464Z,12.85
2023-04-12T15:24:22.290Z,12.85
2023-04-12T15:26:52.835Z,12.84
2023-04-12T15:29:22.657Z,12.83
2023-04-12T15:31:51.010Z,12.89
2023-04-12T15:34:19.626Z,13.07
2023-04-12T15:36:47.728Z,13.25
2023-04-12T15:39:15.492Z,13.20
2023-04-12T15:41:43.858Z,13.07
2023-04-12T15:44:13.566Z,12.99
2023-04-12T15:46:42.031Z,12.91
2023-04-12T15:49:10.853Z,12.86
2023-04-12T15:51:39.178Z,12.81
2023-04-12T15:54:07.243Z,12.88
2023-04-12T15:56:35.725Z,12.92
2023-04-12T15:59:04.187Z,12.82
2023-04-12T16:01:32.133Z,12.76
2023-04-12T16:04:00.251Z,12.72
2023-04-12T16:06:30.796Z,12.68
2023-04-12T16:08:58.814Z,12.65
2023-04-12T16:11:27.807Z,12.62
2023-04-12T16:13:56.501Z,12.59
2023-04-12T16:16:24.520Z,12.56
2023-04-12T16:18:53.581Z,12.53
2023-04-12T16:21:23.467Z,12.50
2023-04-12T16:23:51.448Z,12.46
2023-04-12T16:26:22.183Z,12.42
2023-04-12T16:28:54.713Z,12.38
2023-04-12T16:31:25.432Z,12.35
2023-04-12T16:33:54.085Z,12.32
2023-04-12T16:36:27.234Z,12.27
2023-04-12T16:38:56.261Z,12.24
2023-04-12T16:41:24.220Z,12.18
2023-04-12T16:43:54.037Z,12.13
2023-04-12T16:46:22.526Z,12.08
2023-04-12T16:48:50.487Z,12.02
2023-04-12T16:51:18.346Z,11.98
2023-04-12T16:53:47.003Z,11.93
2023-04-12T16:56:14.924Z,11.89
2023-04-12T16:58:42.720Z,11.83
2023-04-12T17:01:10.905Z,11.79
2023-04-12T17:03:38.949Z,11.75
2023-04-12T17:06:07.614Z,11.71
2023-04-12T17:08:35.890Z,11.68
2023-04-12T17:11:03.765Z,11.64
2023-04-12T17:13:31.724Z,11.62
2023-04-12T17:15:59.573Z,11.60
2023-04-12T17:18:27.507Z,11.57
2023-04-12T17:20:56.138Z,11.55
2023-04-12T17:23:24.396Z,11.51
2023-04-12T17:25:52.425Z,11.48
2023-04-12T17:28:20.320Z,11.46
2023-04-12T17:30:48.610Z,11.43
2023-04-12T17:33:18.439Z,11.41
2023-04-12T17:35:46.793Z,11.38
2023-04-12T17:38:14.576Z,11.35
2023-04-12T17:40:42.542Z,11.32
2023-04-12T17:43:10.462Z,11.29
2023-04-12T17:45:38.733Z,11.27
2023-04-12T17:48:08.954Z,11.25
2023-04-12T17:50:36.780Z,11.22
2023-04-12T17:53:04.648Z,11.18
2023-04-12T17:55:32.792Z,11.16
2023-04-12T17:58:00.718Z,11.13
2023-04-12T18:00:28.565Z,11.11
2023-04-12T18:02:57.171Z,11.07
2023-04-12T18:05:25.676Z,11.03
2023-04-12T18:07:53.496Z,11.00
2023-04-12T18:10:23.358Z,10.98
2023-04-12T18:12:51.434Z,10.95
2023-04-12T18:15:20.041Z,10.92
2023-04-12T18:17:47.988Z,10.88
2023-04-12T18:20:16.581Z,10.85
2023-04-12T18:22:45.945Z,10.80
2023-04-12T18:25:14.102Z,10.77
2023-04-12T18:27:42.552Z,10.74
2023-04-12T18:30:10.682Z,10.70
2023-04-12T18:32:38.747Z,10.67
2023-04-12T18:35:07.736Z,10.65
2023-04-12T18:37:37.095Z,10.62
2023-04-12T18:40:08.933Z,10.59
2023-04-12T18:42:36.982Z,10.57
2023-04-12T18:45:05.663Z,10.54
2023-04-12T18:47:33.775Z,10.52
2023-04-12T18:50:01.748Z,10.50
2023-04-12T18:52:29.823Z,10.48
2023-04-12T18:54:57.794Z,10.47
2023-04-12T18:57:25.712Z,10.45
2023-04-12T18:59:54.006Z,10.44
2023-04-12T19:02:22.554Z,10.42
2023-04-12T19:04:50.664Z,10.42
2023-04-12T19:07:19.145Z,10.40
2023-04-12T19:09:47.286Z,10.40
2023-04-12T19:12:15.621Z,10.38
2023-04-12T19:14:43.420Z,10.38
2023-04-12T19:17:11.651Z,10.36
2023-04-12T19:19:39.433Z,10.35
2023-04-12T19:22:07.499Z,10.34
2023-04-12T19:24:36.264Z,10.33
2023-04-12T19:27:04.525Z,10.32
2023-04-12T19:29:32.615Z,10.31
2023-04-12T19:32:02.443Z,10.30
2023-04-12T19:34:30.719Z,10.29
2023-04-12T19:36:59.330Z,10.27
2023-04-12T19:39:27.420Z,10.26
2023-04-12T19:41:56.473Z,10.25
2023-04-12T19:44:26.177Z,10.24
2023-04-12T19:46:54.115Z,10.23
2023-04-12T19:49:23.142Z,10.22
2023-04-12T19:51:51.298Z,10.21
2023-04-12T19:54:23.614Z,10.20
2023-04-12T19:56:54.133Z,10.19
2023-04-12T19:59:24.132Z,10.17
2023-04-12T20:01:52.392Z,10.16
2023-04-12T20:04:21.937Z,10.15
2023-04-12T20:06:52.381Z,10.14
2023-04-12T20:09:24.098Z,10.13
2023-04-12T20:11:52.629Z,10.12
2023-04-12T20:14:20.764Z,10.11
2023-04-12T20:16:50.121Z,10.09
2023-04-12T20:19:18.269Z,10.09
2023-04-12T20:21:47.598Z,10.08
2023-04-12T20:24:15.569Z,10.07
2023-04-12T20:26:46.692Z,10.05
2023-04-12T20:29:15.066Z,10.04
2023-04-12T20:31:43.775Z,10.03
2023-04-12T20:34:12.043Z,10.02
2023-04-12T20:36:41.391Z,10.00
2023-04-12T20:39:10.582Z,10.00
2023-04-12T20:41:39.261Z,9.99
2023-04-12T20:44:07.149Z,9.98
2023-04-12T20:46:37.214Z,9.97
2023-04-12T20:49:06.874Z,9.94
2023-04-12T20:51:34.771Z,9.93
2023-04-12T20:54:03.336Z,9.91
2023-04-12T20:56:32.314Z,9.90
2023-04-12T20:59:00.831Z,9.90
2023-04-12T21:01:29.306Z,9.87
2023-04-12T21:03:59.652Z,9.86
2023-04-12T21:06:28.470Z,9.86
2023-04-12T21:08:56.595Z,9.84
2023-04-12T21:11:27.553Z,9.82
2023-04-12T21:13:55.531Z,9.81
2023-04-12T21:16:25.729Z,9.80
2023-04-12T21:18:54.791Z,9.78
2023-04-12T21:21:22.647Z,9.76
2023-04-12T21:23:52.013Z,9.75
2023-04-12T21:26:20.800Z,9.74
2023-04-12T21:28:48.802Z,9.73
2023-04-12T21:31:17.551Z,9.72
2023-04-12T21:33:45.723Z,9.70
2023-04-12T21:36:14.499Z,9.69
2023-04-12T21:38:42.638Z,9.68
2023-04-12T21:41:11.601Z,9.66
2023-04-12T21:43:40.194Z,9.65
2023-04-12T21:46:08.401Z,9.63
2023-04-12T21:48:36.923Z,9.62
2023-04-12T21:51:05.180Z,9.61
2023-04-12T21:53:33.382Z,9.59
2023-04-12T21:56:01.684Z,9.58
2023-04-12T21:58:30.268Z,9.57
2023-04-12T22:00:58.472Z,9.55
2023-04-12T22:03:29.586Z,9.54
2023-04-12T22:06:04.235Z,9.53
2023-04-12T22:08:33.481Z,9.52
2023-04-12T22:11:01.663Z,9.51
2023-04-12T22:13:30.968Z,9.49
2023-04-12T22:16:00.882Z,9.48
2023-04-12T22:18:29.154Z,9.46
2023-04-12T22:20:58.011Z,9.44
2023-04-12T22:23:26.220Z,9.42
2023-04-12T22:25:58.502Z,9.40
2023-04-12T22:28:27.115Z,9.38
2023-04-12T22:30:57.262Z,9.37
2023-04-12T22:33:25.279Z,9.37
2023-04-12T22:35:53.360Z,9.35
2023-04-12T22:38:21.412Z,9.34
2023-04-12T22:40:49.666Z,9.33
2023-04-12T22:43:21.074Z,9.32
2023-04-12T22:45:49.195Z,9.31
2023-04-12T22:48:17.002Z,9.30
2023-04-12T22:50:45.443Z,9.29
2023-04-12T22:53:14.251Z,9.28
2023-04-12T22:55:42.588Z,9.27
2023-04-12T22:58:10.313Z,9.26
2023-04-12T23:00:39.558Z,9.25
2023-04-12T23:03:11.333Z,9.25
2023-04-12T23:05:44.698Z,9.23
2023-04-12T23:08:18.226Z,9.21
2023-04-12T23:10:46.347Z,9.21
2023-04-12T23:13:14.100Z,9.20
2023-04-12T23:15:45.743Z,9.18
2023-04-12T23:18:13.596Z,9.18
2023-04-12T23:20:44.943Z,9.17
2023-04-12T23:23:13.880Z,9.15
2023-04-12T23:25:42.880Z,9.14
2023-04-12T23:28:15.899Z,9.13
2023-04-12T23:30:51.348Z,9.11
2023-04-12T23:33:21.376Z,9.10
2023-04-12T23:35:52.819Z,9.10
2023-04-12T23:38:32.621Z,9.10
2023-04-12T23:41:02.525Z,9.08
2023-04-12T23:43:32.682Z,9.07
2023-04-12T23:46:03.358Z,9.06
2023-04-12T23:48:32.531Z,9.06
2023-04-12T23:51:00.553Z,9.06
2023-04-12T23:53:28.339Z,9.05
2023-04-12T23:55:56.751Z,9.04
2023-04-12T23:58:26.227Z,9.03
